Time;durP1;ratioP1;P1;durP2;ratioP2;P2;SDS_P1;SDS_P2;PMS_P1;PMS_P2;Temp;Humidity;BMP_temperature;BMP_pressure;BME280_temperature;BME280_humidity;BME280_pressure;Samples;Min_cycle;Max_cycle;Signal;HPM_P1;HPM_P2
2021/04/29 00:02:34;;;;;;;6.82;5.70;;;15.70;63.60;;;;;;5105087;28;27418;-60
2021/04/29 00:05:28;;;;;;;5.13;4.28;;;15.70;63.80;;;;;;5105346;28;27417;-60
2021/04/29 00:08:34;;;;;;;7.70;6.47;;;15.70;63.70;;;;;;5106554;28;27404;-61
2021/04/29 00:11:49;;;;;;;7.97;5.82;;;15.70;64.20;;;;;;5106550;28;27382;-60
2021/04/29 00:14:55;;;;;;;6.38;4.82;;;15.60;64.00;;;;;;5105970;28;27589;-61
2021/04/29 00:18:01;;;;;;;5.68;4.93;;;15.60;64.00;;;;;;5106095;28;27506;-60
2021/04/29 00:21:09;;;;;;;9.35;5.68;;;15.60;64.40;;;;;;5105856;28;27312;-60
2021/04/29 00:24:26;;;;;;;5.45;4.90;;;15.50;64.20;;;;;;5105750;28;27585;-63
2021/04/29 00:27:52;;;;;;;7.68;5.90;;;15.50;64.20;;;;;;5105880;28;27407;-61
2021/04/29 00:30:50;;;;;;;7.53;5.40;;;15.50;64.50;;;;;;5105278;28;27391;-60
2021/04/29 00:34:16;;;;;;;7.90;5.22;;;15.50;64.70;;;;;;5106218;28;27494;-63
2021/04/29 00:38:04;;;;;;;9.27;5.50;;;15.40;64.40;;;;;;5105452;28;27474;-61
2021/04/29 00:41:31;;;;;;;7.65;4.97;;;15.40;64.70;;;;;;5104968;28;27491;-60
2021/04/29 00:45:00;;;;;;;5.43;4.47;;;15.40;65.00;;;;;;5104871;28;27367;-60
2021/04/29 00:48:27;;;;;;;7.22;4.75;;;15.40;65.00;;;;;;5105544;28;27435;-60
2021/04/29 00:51:33;;;;;;;8.80;5.45;;;15.40;65.00;;;;;;5104628;28;27384;-62
2021/04/29 00:55:09;;;;;;;5.78;4.70;;;15.40;65.30;;;;;;5102109;28;27464;-61
2021/04/29 00:58:17;;;;;;;4.53;3.90;;;15.40;65.20;;;;;;5104381;28;27443;-60
2021/04/29 01:01:35;;;;;;;5.45;4.32;;;15.30;65.20;;;;;;5104241;28;27410;-60
2021/04/29 01:04:34;;;;;;;6.25;5.15;;;15.30;65.10;;;;;;5105349;28;27450;-61
2021/04/29 01:07:42;;;;;;;5.07;4.38;;;15.30;65.20;;;;;;5105612;28;27829;-61
2021/04/29 01:10:32;;;;;;;5.25;4.65;;;15.30;65.10;;;;;;5105415;28;27391;-60
2021/04/29 01:13:40;;;;;;;6.10;4.07;;;15.30;65.30;;;;;;5105559;28;27422;-60
2021/04/29 01:16:48;;;;;;;6.82;4.47;;;15.30;65.40;;;;;;5088848;28;27369;-61
2021/04/29 01:20:22;;;;;;;4.95;4.10;;;15.20;65.50;;;;;;5103178;28;27405;-61
2021/04/29 01:23:29;;;;;;;5.93;3.97;;;15.20;65.30;;;;;;5105080;28;27457;-60
2021/04/29 01:27:06;;;;;;;6.68;4.03;;;15.20;65.40;;;;;;5104715;28;27340;-61
2021/04/29 01:30:13;;;;;;;4.13;3.63;;;15.20;65.80;;;;;;5105252;28;27335;-62
2021/04/29 01:33:20;;;;;;;3.50;3.20;;;15.20;65.80;;;;;;5104294;28;27938;-63
2021/04/29 01:36:28;;;;;;;4.40;3.80;;;15.20;65.90;;;;;;5102893;28;27582;-62
2021/04/29 01:39:54;;;;;;;3.53;3.20;;;15.20;65.90;;;;;;5104855;28;27396;-62
2021/04/29 01:43:22;;;;;;;4.68;3.40;;;15.20;66.30;;;;;;5104728;28;27313;-62
2021/04/29 01:46:28;;;;;;;5.13;2.92;;;15.20;66.40;;;;;;5103130;28;27867;-62
2021/04/29 01:49:42;;;;;;;6.72;3.10;;;15.20;66.80;;;;;;5087709;28;27688;-63
2021/04/29 01:53:08;;;;;;;3.58;3.28;;;15.20;66.50;;;;;;5104478;28;27434;-62
2021/04/29 01:56:35;;;;;;;3.97;2.95;;;15.20;66.30;;;;;;5104114;28;27644;-62
2021/04/29 01:59:32;;;;;;;4.72;2.80;;;15.20;66.80;;;;;;5104012;28;27352;-62
2021/04/29 02:02:59;;;;;;;4.13;2.88;;;15.10;66.40;;;;;;5101223;28;27324;-61
2021/04/29 02:06:26;;;;;;;2.95;2.65;;;15.20;66.50;;;;;;5104149;28;27399;-61
2021/04/29 02:10:21;;;;;;;3.25;2.65;;;15.20;67.00;;;;;;5101123;28;27396;-61
2021/04/29 02:13:55;;;;;;;3.65;2.90;;;15.10;66.60;;;;;;5101258;28;27621;-61
2021/04/29 02:16:42;;;;;;;5.15;3.60;;;15.10;66.80;;;;;;5101302;28;27394;-62
2021/04/29 02:20:09;;;;;;;3.53;2.60;;;15.10;66.80;;;;;;5104308;28;27459;-62
2021/04/29 02:23:19;;;;;;;2.38;1.70;;;15.10;68.20;;;;;;5103332;28;27473;-61
2021/04/29 02:26:11;;;;;;;1.88;1.50;;;15.10;67.10;;;;;;5100861;28;27445;-61
2021/04/29 02:29:20;;;;;;;1.85;1.48;;;15.10;66.40;;;;;;5103182;28;27375;-64
2021/04/29 02:32:17;;;;;;;1.60;1.50;;;15.00;66.80;;;;;;5103791;28;27316;-62
2021/04/29 02:35:46;;;;;;;1.85;1.20;;;15.00;66.40;;;;;;5104209;28;27430;-62
2021/04/29 02:39:13;;;;;;;1.95;1.30;;;15.00;66.30;;;;;;5103389;28;28088;-61
2021/04/29 02:42:50;;;;;;;1.40;0.68;;;14.90;66.40;;;;;;5103482;28;27345;-61
2021/04/29 02:45:48;;;;;;;2.53;0.90;;;14.90;66.50;;;;;;5103422;28;27459;-62
2021/04/29 02:49:01;;;;;;;2.88;0.82;;;14.90;66.40;;;;;;5101214;28;27474;-62
2021/04/29 02:51:52;;;;;;;1.30;1.00;;;14.90;66.70;;;;;;5061043;28;28060;-62
2021/04/29 02:55:19;;;;;;;1.45;1.00;;;14.90;66.20;;;;;;5062382;28;27463;-62
2021/04/29 02:58:23;;;;;;;1.67;1.05;;;14.80;66.50;;;;;;5062553;28;27570;-62
2021/04/29 03:01:16;;;;;;;1.25;0.60;;;14.80;66.40;;;;;;5061640;28;27503;-62
2021/04/29 03:04:50;;;;;;;1.00;0.70;;;14.80;66.30;;;;;;5061511;28;27512;-62
2021/04/29 03:08:18;;;;;;;0.88;0.60;;;14.80;66.10;;;;;;5062357;28;27492;-61
2021/04/29 03:11:35;;;;;;;1.35;0.60;;;14.80;66.20;;;;;;5063212;28;27418;-62
2021/04/29 03:14:33;;;;;;;0.70;0.60;;;14.80;65.90;;;;;;5063024;28;27493;-62
2021/04/29 03:17:25;;;;;;;0.80;0.60;;;14.80;65.70;;;;;;5047800;28;27464;-62
2021/04/29 03:20:52;;;;;;;0.90;0.70;;;14.80;65.70;;;;;;5062640;28;27357;-62
2021/04/29 03:24:24;;;;;;;1.33;0.50;;;14.80;65.70;;;;;;5062627;28;27355;-62
2021/04/29 03:27:21;;;;;;;1.10;0.68;;;14.80;65.30;;;;;;5062670;28;27345;-62
2021/04/29 03:30:17;;;;;;;0.45;0.45;;;14.80;64.60;;;;;;5062556;28;27415;-63
2021/04/29 03:33:23;;;;;;;0.77;0.70;;;14.80;64.20;;;;;;5059376;28;27474;-62
2021/04/29 03:36:49;;;;;;;1.58;0.70;;;14.80;64.10;;;;;;5062752;28;27424;-62
2021/04/29 03:39:57;;;;;;;0.95;0.75;;;14.80;64.00;;;;;;5062456;28;27393;-62
2021/04/29 03:43:24;;;;;;;1.40;0.75;;;14.80;63.80;;;;;;5061243;28;27563;-62
2021/04/29 03:46:31;;;;;;;1.10;0.77;;;14.80;63.80;;;;;;5062545;28;27407;-62
2021/04/29 03:49:29;;;;;;;1.23;0.90;;;14.80;63.70;;;;;;5065373;28;27394;-62
2021/04/29 03:52:26;;;;;;;2.15;0.60;;;14.80;63.60;;;;;;5103148;28;27478;-62
2021/04/29 03:55:31;;;;;;;1.20;0.88;;;14.80;63.30;;;;;;5103055;28;27332;-62
2021/04/29 03:58:46;;;;;;;1.77;0.93;;;14.70;63.30;;;;;;5101595;28;27398;-62
2021/04/29 04:01:38;;;;;;;1.27;1.00;;;14.70;63.30;;;;;;5101736;28;27635;-62
2021/04/29 04:04:46;;;;;;;1.00;0.80;;;14.70;63.50;;;;;;5102911;28;27478;-63
2021/04/29 04:08:13;;;;;;;3.58;1.05;;;14.70;64.40;;;;;;5101688;28;27651;-63
2021/04/29 04:11:11;;;;;;;1.00;0.80;;;14.60;63.60;;;;;;5101730;28;27391;-63
2021/04/29 04:14:18;;;;;;;1.40;1.10;;;14.60;63.80;;;;;;5098847;28;27517;-62
2021/04/29 04:17:28;;;;;;;2.47;1.20;;;14.60;64.10;;;;;;5101153;28;27576;-62
2021/04/29 04:20:56;;;;;;;1.25;1.02;;;14.50;63.80;;;;;;5101090;28;27364;-61
2021/04/29 04:24:29;;;;;;;2.17;1.30;;;14.50;63.90;;;;;;5102432;28;27447;-62
2021/04/29 04:27:27;;;;;;;3.85;1.30;;;14.40;64.00;;;;;;5102534;28;27311;-62
2021/04/29 04:30:38;;;;;;;3.60;1.20;;;14.40;64.20;;;;;;5104348;28;27434;-62
2021/04/29 04:33:24;;;;;;;5.22;1.42;;;14.40;64.30;;;;;;5104832;28;27451;-63
2021/04/29 04:36:31;;;;;;;3.63;1.90;;;14.40;64.60;;;;;;5105938;28;27390;-62
2021/04/29 04:39:59;;;;;;;2.17;1.80;;;14.30;64.70;;;;;;5105043;28;27432;-62
2021/04/29 04:43:05;;;;;;;2.00;1.77;;;14.30;64.90;;;;;;5104973;28;27048;-62
2021/04/29 04:46:33;;;;;;;2.88;2.25;;;14.30;65.20;;;;;;5105658;28;27931;-62
2021/04/29 04:49:41;;;;;;;4.80;2.53;;;14.30;65.20;;;;;;5103810;28;27335;-62
2021/04/29 04:52:50;;;;;;;3.72;2.60;;;14.30;65.20;;;;;;5105798;28;27421;-62
2021/04/29 04:55:57;;;;;;;5.07;4.20;;;14.30;65.40;;;;;;5105612;28;27360;-62
2021/04/29 04:59:04;;;;;;;4.85;3.33;;;14.30;65.40;;;;;;5105778;28;27888;-62
2021/04/29 05:02:29;;;;;;;5.53;3.83;;;14.30;65.40;;;;;;5105254;28;27566;-62
2021/04/29 05:05:26;;;;;;;5.55;2.88;;;14.20;65.60;;;;;;5104819;28;27671;-62
2021/04/29 05:08:33;;;;;;;6.50;2.50;;;14.20;65.70;;;;;;5101301;28;27443;-61
2021/04/29 05:11:59;;;;;;;5.82;2.60;;;14.20;65.70;;;;;;5104644;28;28724;-62
2021/04/29 05:15:06;;;;;;;3.97;2.53;;;14.20;65.90;;;;;;5104373;28;27585;-61
2021/04/29 05:18:13;;;;;;;4.25;2.80;;;14.20;65.90;;;;;;5104745;28;27341;-62
2021/04/29 05:21:39;;;;;;;3.88;2.30;;;14.20;65.90;;;;;;5103809;28;27381;-63
2021/04/29 05:24:43;;;;;;;3.00;2.15;;;14.20;66.00;;;;;;5104986;28;27455;-62
2021/04/29 05:27:44;;;;;;;2.47;1.90;;;14.20;66.10;;;;;;5105337;28;27519;-62
2021/04/29 05:30:49;;;;;;;2.92;2.45;;;14.20;66.10;;;;;;5104957;28;27465;-63
2021/04/29 05:33:55;;;;;;;3.10;2.10;;;14.20;65.90;;;;;;5104451;28;27415;-62
2021/04/29 05:36:47;;;;;;;4.13;2.47;;;14.20;66.00;;;;;;5105024;28;27934;-62
2021/04/29 05:39:39;;;;;;;4.85;2.72;;;14.10;66.00;;;;;;5104746;28;27473;-62
2021/04/29 05:43:05;;;;;;;6.05;2.42;;;14.10;66.10;;;;;;5100822;27;27404;-62
2021/04/29 05:46:11;;;;;;;8.10;3.35;;;14.10;66.30;;;;;;5104037;28;27566;-62
2021/04/29 05:49:29;;;;;;;3.67;2.70;;;14.10;66.40;;;;;;5104407;28;27449;-62
2021/04/29 05:52:26;;;;;;;6.72;4.38;;;14.10;66.30;;;;;;5101624;28;27415;-61
2021/04/29 05:55:37;;;;;;;5.57;3.85;;;14.20;66.60;;;;;;5104702;28;27395;-63
2021/04/29 05:58:44;;;;;;;5.25;3.40;;;14.20;66.60;;;;;;5104056;28;27481;-62
2021/04/29 06:02:12;;;;;;;4.07;2.90;;;14.20;66.70;;;;;;5104220;28;27870;-61
2021/04/29 06:05:19;;;;;;;4.22;2.88;;;14.20;66.70;;;;;;5103319;28;27469;-61
2021/04/29 06:08:12;;;;;;;5.75;2.90;;;14.20;66.90;;;;;;5103858;28;27385;-62
2021/04/29 06:11:18;;;;;;;5.30;2.85;;;14.20;66.70;;;;;;5101417;28;27325;-62
2021/04/29 06:14:36;;;;;;;4.85;2.60;;;14.30;66.60;;;;;;5103435;28;27865;-62
2021/04/29 06:18:03;;;;;;;7.07;3.60;;;14.30;67.00;;;;;;5104481;28;27452;-62
2021/04/29 06:21:31;;;;;;;8.23;3.00;;;14.40;67.30;;;;;;5103385;28;27686;-62
2021/04/29 06:24:26;;;;;;;3.72;2.80;;;14.50;67.30;;;;;;5103275;28;27438;-64
2021/04/29 06:27:22;;;;;;;3.42;3.10;;;14.60;67.10;;;;;;5104397;28;27351;-62
2021/04/29 06:30:20;;;;;;;4.60;2.80;;;14.70;67.30;;;;;;5104300;28;27373;-62
2021/04/29 06:33:06;;;;;;;3.88;2.97;;;14.90;67.60;;;;;;5103211;28;27427;-62
2021/04/29 06:36:18;;;;;;;3.83;3.10;;;15.10;67.70;;;;;;5103386;28;27492;-62
2021/04/29 06:39:26;;;;;;;10.15;3.28;;;15.30;67.40;;;;;;5079391;28;27611;-62
2021/04/29 06:42:52;;;;;;;5.80;3.33;;;15.50;66.10;;;;;;5102825;28;27430;-63
2021/04/29 06:46:00;;;;;;;5.45;3.55;;;15.60;65.60;;;;;;5103437;28;27531;-62
2021/04/29 06:49:06;;;;;;;7.28;3.25;;;16.10;64.60;;;;;;5102798;28;27418;-61
2021/04/29 06:52:27;;;;;;;5.65;2.90;;;16.50;63.80;;;;;;5102863;28;27336;-62
2021/04/29 06:55:40;;;;;;;4.90;2.92;;;16.90;62.70;;;;;;5102529;28;27518;-63
2021/04/29 06:58:56;;;;;;;3.70;2.83;;;17.40;60.90;;;;;;5103070;28;27595;-61
2021/04/29 07:02:22;;;;;;;5.90;2.55;;;18.00;60.10;;;;;;5101153;28;27409;-63
2021/04/29 07:05:26;;;;;;;5.65;2.95;;;18.40;59.40;;;;;;5104503;28;27460;-70
2021/04/29 07:08:30;;;;;;;5.70;3.10;;;18.90;58.60;;;;;;5104704;28;27438;-62
2021/04/29 07:11:22;;;;;;;6.13;2.95;;;19.20;57.90;;;;;;5104800;28;27465;-62
2021/04/29 07:14:46;;;;;;;4.93;2.88;;;19.60;57.40;;;;;;5100886;28;27309;-63
2021/04/29 07:17:46;;;;;;;3.72;2.78;;;20.10;56.00;;;;;;5086840;28;27935;-63
2021/04/29 07:20:44;;;;;;;8.93;3.38;;;20.50;55.00;;;;;;5104677;28;27782;-63
2021/04/29 07:23:55;;;;;;;4.97;2.55;;;20.60;54.40;;;;;;5104129;28;27320;-62
2021/04/29 07:27:27;;;;;;;4.28;2.58;;;20.70;54.30;;;;;;5103789;28;27505;-69
2021/04/29 07:34:46;;;;;;;4.78;3.75;;;20.90;53.80;;;;;;5101105;28;27442;-63
2021/04/29 07:37:43;;;;;;;6.50;3.30;;;20.90;52.50;;;;;;5100421;28;27371;-63
2021/04/29 07:40:36;;;;;;;6.00;3.88;;;21.10;52.50;;;;;;5100344;28;27399;-64
2021/04/29 07:43:36;;;;;;;4.53;3.72;;;21.50;52.30;;;;;;5104112;28;27385;-62
2021/04/29 07:46:25;;;;;;;4.72;3.15;;;21.90;50.80;;;;;;5087264;28;27661;-62
2021/04/29 07:49:42;;;;;;;4.75;2.88;;;22.20;49.80;;;;;;5102738;28;27317;-63
2021/04/29 07:52:37;;;;;;;4.70;3.50;;;22.70;50.50;;;;;;5080154;28;27342;-62
2021/04/29 07:55:38;;;;;;;4.45;4.05;;;22.90;49.10;;;;;;5084100;28;27967;-62
2021/04/29 07:58:37;;;;;;;4.68;3.78;;;22.80;51.40;;;;;;5079660;28;27424;-63
2021/04/29 08:09:45;;;;;;;7.00;5.22;;;22.90;50.20;;;;;;5085573;28;27440;-63
2021/04/29 08:12:59;;;;;;;6.95;4.95;;;22.50;48.80;;;;;;5083406;28;27553;-69
2021/04/29 08:20:11;;;;;;;8.38;5.22;;;22.30;50.20;;;;;;5083723;28;27510;-62
2021/04/29 08:23:09;;;;;;;5.57;4.65;;;22.20;49.10;;;;;;5086199;28;27488;-62
2021/04/29 08:26:09;;;;;;;10.43;5.40;;;22.00;49.20;;;;;;5085762;28;27490;-62
2021/04/29 08:29:01;;;;;;;6.35;4.88;;;21.80;50.20;;;;;;5086954;28;27427;-62
2021/04/29 08:31:54;;;;;;;7.13;5.05;;;21.70;50.50;;;;;;5083540;28;27345;-62
2021/04/29 08:34:43;;;;;;;5.63;4.75;;;21.70;50.80;;;;;;5082709;28;27340;-63
2021/04/29 08:37:35;;;;;;;8.25;5.63;;;21.60;51.10;;;;;;5054701;28;27394;-63
2021/04/29 08:40:31;;;;;;;7.47;5.15;;;21.60;50.70;;;;;;5084177;28;27390;-63
2021/04/29 08:43:33;;;;;;;7.65;4.68;;;21.50;50.30;;;;;;5082910;28;27384;-62
2021/04/29 08:46:36;;;;;;;6.88;5.90;;;21.40;51.30;;;;;;5086435;28;27525;-62
2021/04/29 08:49:54;;;;;;;8.50;4.47;;;21.30;51.10;;;;;;5085955;28;27423;-62
2021/04/29 08:52:43;;;;;;;7.15;4.55;;;21.20;52.00;;;;;;5102778;28;27490;-63
2021/04/29 08:59:39;;;;;;;7.22;5.05;;;21.40;50.80;;;;;;5103352;28;27452;-62
2021/04/29 09:02:39;;;;;;;7.85;5.22;;;21.20;50.50;;;;;;5088459;28;27439;-62
2021/04/29 09:05:58;;;;;;;10.45;5.88;;;21.30;51.40;;;;;;5106375;28;27426;-63
2021/04/29 09:09:02;;;;;;;8.35;5.53;;;21.60;51.40;;;;;;5104730;28;27454;-62
2021/04/29 09:11:58;;;;;;;14.63;5.47;;;22.30;51.30;;;;;;5089012;28;27921;-63
2021/04/29 09:14:59;;;;;;;8.93;5.38;;;22.80;51.00;;;;;;5088469;28;27430;-64
2021/04/29 09:18:21;;;;;;;8.15;5.18;;;23.00;49.40;;;;;;5102607;28;27414;-64
2021/04/29 09:21:34;;;;;;;13.63;6.53;;;22.80;48.80;;;;;;5106007;28;27403;-63
2021/04/29 09:28:56;;;;;;;9.32;5.38;;;22.30;50.10;;;;;;5104440;28;27379;-62
2021/04/29 09:32:07;;;;;;;;;;;;;;;;;;;;;
2021/04/29 09:43:43;;;;;;;8.07;5.85;;;21.50;50.60;;;;;;5102459;28;27320;-62
2021/04/29 09:46:44;;;;;;;7.72;5.47;;;21.40;50.70;;;;;;5102321;28;27347;-64
2021/04/29 09:49:37;;;;;;;11.52;6.15;;;21.50;50.50;;;;;;5102276;28;27393;-62
2021/04/29 09:52:29;;;;;;;9.25;5.88;;;21.50;50.40;;;;;;5102101;28;27345;-62
2021/04/29 09:55:31;;;;;;;6.50;5.30;;;21.40;50.20;;;;;;5105437;28;27436;-63
2021/04/29 09:58:29;;;;;;;10.93;5.75;;;21.40;50.20;;;;;;5087725;28;27477;-61
2021/04/29 10:01:40;;;;;;;10.52;4.90;;;21.30;50.10;;;;;;5105248;28;27346;-64
2021/04/29 10:04:54;;;;;;;9.15;4.82;;;21.20;50.40;;;;;;5103840;28;27373;-62
2021/04/29 10:08:24;;;;;;;8.73;4.82;;;21.20;50.50;;;;;;5101614;28;27487;-62
2021/04/29 10:11:25;;;;;;;11.27;5.93;;;21.10;50.70;;;;;;5102156;28;27406;-62
2021/04/29 10:14:15;;;;;;;9.93;5.85;;;21.00;51.20;;;;;;5101508;28;27462;-63
2021/04/29 10:17:12;;;;;;;10.23;6.10;;;21.00;51.60;;;;;;5087447;28;27423;-65
2021/04/29 10:20:17;;;;;;;11.90;5.68;;;20.90;51.20;;;;;;5101574;28;27382;-62
2021/04/29 10:23:51;;;;;;;7.95;4.97;;;20.90;50.80;;;;;;5101394;28;26903;-62
2021/04/29 10:30:52;;;;;;;10.05;5.57;;;20.80;51.10;;;;;;5104644;28;27628;-62
2021/04/29 10:34:21;;;;;;;7.57;5.22;;;20.90;50.80;;;;;;5105398;28;27341;-67
2021/04/29 10:41:29;;;;;;;6.75;5.07;;;21.30;50.30;;;;;;5101707;28;27402;-63
2021/04/29 10:44:24;;;;;;;7.68;5.18;;;21.30;50.40;;;;;;5105009;28;27377;-63
2021/04/29 10:47:33;;;;;;;7.15;4.63;;;21.40;50.10;;;;;;5101100;28;27396;-62
2021/04/29 10:51:16;;;;;;;6.13;4.68;;;21.40;50.20;;;;;;5085724;28;27491;-64
2021/04/29 10:54:28;;;;;;;6.38;4.57;;;21.50;50.30;;;;;;5101143;28;27506;-62
2021/04/29 10:57:48;;;;;;;8.02;4.22;;;21.80;49.70;;;;;;5104731;28;28066;-62
2021/04/29 11:01:00;;;;;;;5.13;4.35;;;22.00;49.70;;;;;;5086722;28;27468;-63
2021/04/29 16:01:11;;;;;;;4.57;2.00;;;21.60;45.30;;;;;;5100779;28;27320;-63
2021/04/29 16:04:20;;;;;;;3.97;2.30;;;21.40;45.20;;;;;;5099936;28;27611;-58
2021/04/29 16:07:17;;;;;;;4.35;2.28;;;21.20;45.00;;;;;;5100699;28;27427;-58
2021/04/29 16:10:06;;;;;;;3.03;1.98;;;21.10;46.30;;;;;;5103867;28;27394;-57
2021/04/29 16:12:51;;;;;;;4.35;1.95;;;21.00;47.20;;;;;;5103862;28;27415;-58
2021/04/29 16:15:36;;;;;;;3.65;2.05;;;20.90;48.10;;;;;;5099774;28;27431;-59
2021/04/29 16:18:21;;;;;;;4.97;2.33;;;20.80;48.50;;;;;;5103895;28;27404;-57
2021/04/29 16:21:06;;;;;;;4.82;2.10;;;20.80;48.70;;;;;;5103765;28;27403;-63
2021/04/29 16:23:51;;;;;;;4.03;2.30;;;20.80;49.70;;;;;;5103551;28;28091;-57
2021/04/29 16:26:36;;;;;;;4.78;2.45;;;20.70;49.80;;;;;;5105657;28;27432;-57
2021/04/29 16:29:25;;;;;;;4.07;1.85;;;20.70;50.50;;;;;;5103980;28;27415;-61
2021/04/29 16:32:11;;;;;;;3.70;2.13;;;20.70;51.00;;;;;;5106514;28;27402;-57
2021/04/29 16:34:56;;;;;;;3.28;2.17;;;20.70;50.50;;;;;;5107405;28;27321;-64
2021/04/29 16:37:41;;;;;;;2.53;1.90;;;20.70;50.20;;;;;;5107075;28;27387;-57
2021/04/29 16:40:26;;;;;;;5.13;2.05;;;20.70;49.80;;;;;;5107386;28;27381;-57
2021/04/29 16:43:11;;;;;;;3.40;1.95;;;20.60;49.80;;;;;;5107025;28;27367;-57
2021/04/29 16:45:56;;;;;;;3.63;1.75;;;20.60;50.10;;;;;;5105959;28;27426;-57
2021/04/29 16:48:40;;;;;;;2.90;2.15;;;20.60;50.60;;;;;;5106878;28;27333;-58
2021/04/29 16:51:25;;;;;;;3.83;2.00;;;20.60;50.00;;;;;;5106806;28;27300;-57
2021/04/29 16:54:10;;;;;;;3.78;2.15;;;20.60;49.50;;;;;;5107138;28;27406;-57
2021/04/29 16:56:55;;;;;;;4.10;2.20;;;20.70;49.50;;;;;;5106765;28;27394;-58
2021/04/29 16:59:40;;;;;;;2.92;2.10;;;20.70;49.60;;;;;;5106660;28;27348;-57
2021/04/29 17:02:24;;;;;;;4.82;2.55;;;20.80;49.80;;;;;;5106991;28;27327;-57
2021/04/29 17:05:10;;;;;;;4.13;2.03;;;20.80;49.10;;;;;;5103517;28;27325;-56
2021/04/29 17:07:55;;;;;;;3.92;2.70;;;20.80;48.50;;;;;;5106822;28;27408;-53
2021/04/29 17:10:40;;;;;;;8.75;4.38;;;20.60;42.60;;;;;;5106543;28;27382;-57
2021/04/29 17:13:25;;;;;;;13.27;7.35;;;20.50;43.00;;;;;;5106493;28;27345;-58
2021/04/29 17:16:10;;;;;;;55.45;35.10;;;20.40;45.50;;;;;;5106435;28;27324;-57
2021/04/29 17:18:55;;;;;;;18.67;5.32;;;20.40;45.50;;;;;;5103849;28;27364;-57
2021/04/29 17:21:41;;;;;;;12.68;7.50;;;20.40;45.90;;;;;;5106679;28;27418;-57
2021/04/29 17:24:26;;;;;;;20.83;15.27;;;20.40;46.20;;;;;;5105516;28;27427;-57
2021/04/29 17:27:11;;;;;;;16.23;7.05;;;20.30;46.40;;;;;;5103244;28;27331;-56
2021/04/29 17:29:56;;;;;;;20.67;11.57;;;20.30;47.30;;;;;;5106486;28;27426;-56
2021/04/29 17:32:42;;;;;;;8.25;4.07;;;20.30;46.70;;;;;;5106448;28;27606;-56
2021/04/29 17:35:26;;;;;;;13.95;6.15;;;20.20;46.80;;;;;;5106466;28;27408;-56
2021/04/29 17:38:48;;;;;;;20.75;11.52;;;20.20;47.40;;;;;;5105139;27;27434;-62
2021/04/29 17:41:43;;;;;;;8.85;5.75;;;20.10;46.20;;;;;;5061966;28;27470;-63
2021/04/29 17:44:30;;;;;;;7.67;5.57;;;20.00;46.40;;;;;;5105461;28;27416;-62
2021/04/29 17:47:20;;;;;;;14.30;8.38;;;20.00;46.30;;;;;;5105324;28;27398;-62
2021/04/29 17:50:12;;;;;;;17.92;10.82;;;19.90;46.50;;;;;;5090503;28;27435;-63
2021/04/29 17:53:05;;;;;;;15.00;9.30;;;19.80;46.40;;;;;;5105026;28;27462;-64
2021/04/29 17:55:50;;;;;;;12.65;9.40;;;19.80;45.60;;;;;;5090999;28;27646;-62
2021/04/29 17:58:34;;;;;;;14.65;9.38;;;19.70;45.80;;;;;;5106227;28;27402;-63
2021/04/29 18:02:16;;;;;;;8.23;5.38;;;19.70;45.50;;;;;;5105731;28;27390;-65
2021/04/29 18:05:29;;;;;;;24.15;14.10;;;19.60;45.30;;;;;;5105598;28;27619;-61
2021/04/29 18:08:17;;;;;;;19.40;12.32;;;19.50;44.80;;;;;;5105787;28;27506;-61
2021/04/29 18:11:06;;;;;;;9.45;6.47;;;19.50;45.10;;;;;;5105534;28;27335;-56
2021/04/29 18:14:35;;;;;;;22.90;19.25;;;19.40;44.70;;;;;;5101423;28;27532;-56
2021/04/29 18:17:28;;;;;;;12.68;10.48;;;19.40;45.10;;;;;;5105561;28;27344;-55
2021/04/29 18:20:32;;;;;;;13.98;7.15;;;19.30;44.50;;;;;;5105556;28;27403;-55
2021/04/29 18:23:26;;;;;;;7.28;6.05;;;19.20;44.70;;;;;;5087898;28;27473;-56
2021/04/29 18:26:24;;;;;;;8.50;4.93;;;19.20;44.70;;;;;;5087798;28;27400;-60
2021/04/29 18:29:36;;;;;;;5.32;4.38;;;19.10;44.70;;;;;;5101464;28;27452;-55
2021/04/29 18:32:48;;;;;;;7.13;3.60;;;19.10;45.10;;;;;;5101134;28;27375;-56
2021/04/29 18:35:58;;;;;;;13.57;8.88;;;19.00;44.80;;;;;;5101214;28;27407;-56
2021/04/29 18:38:54;;;;;;;8.32;5.25;;;18.90;45.00;;;;;;5105128;28;27458;-58
2021/04/29 18:41:47;;;;;;;5.80;4.20;;;18.80;45.30;;;;;;5073525;28;27417;-56
2021/04/29 18:44:40;;;;;;;6.55;4.28;;;18.70;44.80;;;;;;5101579;28;27431;-56
2021/04/29 18:47:31;;;;;;;6.25;4.68;;;18.70;45.20;;;;;;5100957;28;27311;-56
2021/04/29 18:50:20;;;;;;;7.38;3.85;;;18.60;45.40;;;;;;5101008;28;27409;-56
2021/04/29 18:53:09;;;;;;;6.53;3.33;;;18.50;45.90;;;;;;5104196;28;27865;-56
2021/04/29 18:55:56;;;;;;;4.93;3.17;;;18.40;46.30;;;;;;5104318;28;27421;-57
2021/04/29 18:58:49;;;;;;;4.40;3.08;;;18.30;46.50;;;;;;5101264;28;27419;-56
2021/04/29 19:01:39;;;;;;;5.45;3.35;;;18.30;46.90;;;;;;5104711;28;27461;-57
2021/04/29 19:04:33;;;;;;;9.07;3.20;;;18.20;47.10;;;;;;5100675;28;27371;-56
2021/04/29 19:07:24;;;;;;;4.10;3.00;;;18.10;47.30;;;;;;5104004;28;27379;-55
2021/04/29 19:10:18;;;;;;;4.03;3.40;;;18.00;47.90;;;;;;5089143;28;27439;-55
2021/04/29 19:13:40;;;;;;;5.68;3.08;;;17.90;48.30;;;;;;5104866;28;27489;-56
2021/04/29 19:16:30;;;;;;;5.28;3.53;;;17.90;48.70;;;;;;5100490;28;27966;-55
2021/04/29 19:19:20;;;;;;;7.47;4.47;;;17.80;48.80;;;;;;5103780;28;27427;-56
2021/04/29 19:22:08;;;;;;;4.47;3.50;;;17.70;49.10;;;;;;5104619;28;27417;-55
2021/04/29 19:24:56;;;;;;;5.15;3.25;;;17.60;49.20;;;;;;5103817;28;27478;-56
2021/04/29 19:27:47;;;;;;;7.22;3.15;;;17.60;49.60;;;;;;5100366;28;27384;-56
2021/04/29 19:30:36;;;;;;;6.55;3.17;;;17.50;49.80;;;;;;5104337;28;27540;-56
2021/04/29 19:33:25;;;;;;;7.80;3.08;;;17.40;49.80;;;;;;5104369;28;26950;-57
2021/04/29 19:36:18;;;;;;;12.57;3.83;;;17.40;49.90;;;;;;5103985;28;27383;-57
2021/04/29 19:39:05;;;;;;;9.20;3.53;;;17.30;50.10;;;;;;5103781;28;27395;-56
2021/04/29 19:41:53;;;;;;;5.65;2.67;;;17.20;50.20;;;;;;5104216;28;27415;-56
2021/04/29 19:44:40;;;;;;;5.30;2.78;;;17.20;50.40;;;;;;5104424;28;27407;-56
2021/04/29 19:47:27;;;;;;;3.30;2.60;;;17.10;50.40;;;;;;5104371;28;27411;-56
2021/04/29 19:50:14;;;;;;;5.00;2.70;;;17.10;50.60;;;;;;5086218;28;27414;-56
2021/04/29 19:53:02;;;;;;;6.13;2.90;;;17.00;50.80;;;;;;5103360;28;27344;-56
2021/04/29 19:55:51;;;;;;;4.53;2.63;;;16.90;51.00;;;;;;5102603;28;27452;-57
2021/04/29 19:58:38;;;;;;;5.57;2.38;;;16.80;51.40;;;;;;5100220;28;26916;-56
2021/04/29 20:01:25;;;;;;;3.90;2.35;;;16.70;51.50;;;;;;5102184;27;27968;-57
2021/04/29 20:04:18;;;;;;;4.45;2.40;;;16.70;51.50;;;;;;5106467;28;27348;-56
2021/04/29 20:07:08;;;;;;;4.40;2.75;;;16.60;51.80;;;;;;5107917;28;27464;-56
2021/04/29 20:09:57;;;;;;;4.97;2.50;;;16.60;51.90;;;;;;5107677;28;27399;-54
2021/04/29 20:12:44;;;;;;;4.47;2.35;;;16.50;52.00;;;;;;5107663;28;27350;-56
2021/04/29 20:15:31;;;;;;;3.17;2.35;;;16.40;51.90;;;;;;5107371;28;27334;-54
2021/04/29 20:18:18;;;;;;;4.90;2.10;;;16.40;51.90;;;;;;5106627;28;27361;-55
2021/04/29 20:21:04;;;;;;;17.77;10.65;;;16.30;52.00;;;;;;5107557;28;27407;-56
2021/04/29 20:23:51;;;;;;;4.40;2.45;;;16.30;52.00;;;;;;5107516;28;27457;-55
2021/04/29 20:26:39;;;;;;;3.60;2.65;;;16.20;52.40;;;;;;5103105;28;27394;-57
2021/04/29 20:29:25;;;;;;;3.85;2.42;;;16.10;52.50;;;;;;5103432;28;27375;-61
2021/04/29 20:32:12;;;;;;;4.18;2.83;;;16.10;52.60;;;;;;5106769;28;27589;-55
2021/04/29 20:34:58;;;;;;;5.05;2.25;;;15.90;52.80;;;;;;5103328;28;27434;-56
2021/04/29 20:37:45;;;;;;;6.43;2.58;;;15.80;52.90;;;;;;5106556;28;27421;-54
2021/04/29 20:40:33;;;;;;;6.20;3.30;;;15.70;53.20;;;;;;5088761;28;27457;-56
2021/04/29 20:43:20;;;;;;;5.00;2.55;;;15.60;53.70;;;;;;5106497;28;27416;-55
2021/04/29 20:46:07;;;;;;;5.72;2.17;;;15.50;53.70;;;;;;5106621;28;27328;-56
2021/04/29 20:48:57;;;;;;;6.28;3.20;;;15.30;53.80;;;;;;5107040;28;27430;-55
2021/04/29 20:51:45;;;;;;;4.60;3.17;;;15.20;54.40;;;;;;5106325;28;27394;-54
2021/04/29 20:54:31;;;;;;;6.85;2.80;;;15.20;54.40;;;;;;5106169;28;27388;-57
2021/04/29 20:57:17;;;;;;;6.30;2.90;;;15.10;54.50;;;;;;5088332;28;27573;-54
2021/04/29 21:00:05;;;;;;;4.13;2.90;;;15.10;54.90;;;;;;5106937;28;27600;-59
2021/04/29 21:02:52;;;;;;;4.78;3.55;;;15.00;54.60;;;;;;5102933;28;27321;-54
2021/04/29 21:05:39;;;;;;;5.20;3.10;;;15.00;55.00;;;;;;5106706;28;27339;-55
2021/04/29 21:08:26;;;;;;;5.45;2.92;;;15.00;54.70;;;;;;5106796;28;27382;-55
2021/04/29 21:11:12;;;;;;;4.15;3.20;;;15.00;55.30;;;;;;5106752;27;27421;-55
2021/04/29 21:13:59;;;;;;;4.32;3.13;;;15.00;55.00;;;;;;5106189;28;27504;-56
2021/04/29 21:16:46;;;;;;;5.00;3.17;;;14.90;55.00;;;;;;5106762;28;27450;-55
2021/04/29 21:19:32;;;;;;;6.93;2.88;;;14.90;54.90;;;;;;5106667;28;27500;-55
2021/04/29 21:22:19;;;;;;;3.72;3.08;;;14.90;55.10;;;;;;5106601;28;27443;-55
2021/04/29 21:25:05;;;;;;;8.07;3.30;;;14.80;55.00;;;;;;5106063;28;27411;-54
2021/04/29 21:27:52;;;;;;;4.65;3.22;;;14.70;55.20;;;;;;5106297;28;27332;-55